createdAt,value
2022-10-12T00:01:32.666Z,7.50
2022-10-12T00:03:59.740Z,7.60
2022-10-12T00:06:27.261Z,7.60
2022-10-12T00:08:55.002Z,7.60
2022-10-12T00:11:25.215Z,7.60
2022-10-12T00:13:53.066Z,7.60
2022-10-12T00:16:22.501Z,7.60
2022-10-12T00:18:54.375Z,7.60
2022-10-12T00:21:22.076Z,7.60
2022-10-12T00:23:49.170Z,7.60
2022-10-12T00:26:20.125Z,7.60
2022-10-12T00:28:47.092Z,7.50
2022-10-12T00:31:19.836Z,7.50
2022-10-12T00:33:47.726Z,7.40
2022-10-12T00:36:28.149Z,7.40
2022-10-12T00:38:56.445Z,7.30
2022-10-12T00:41:27.312Z,7.30
2022-10-12T00:43:58.274Z,7.20
2022-10-12T00:46:45.064Z,7.20
2022-10-12T00:49:25.163Z,7.10
2022-10-12T00:51:56.514Z,7.10
2022-10-12T00:54:28.911Z,7.00
2022-10-12T00:56:56.732Z,6.90
2022-10-12T00:59:47.570Z,6.90
2022-10-12T01:02:14.929Z,6.80
2022-10-12T01:04:42.518Z,6.80
2022-10-12T01:07:09.459Z,6.70
2022-10-12T01:09:36.509Z,6.70
2022-10-12T01:12:05.512Z,6.70
2022-10-12T01:14:32.448Z,6.70
2022-10-12T01:17:12.935Z,6.70
2022-10-12T01:20:17.145Z,6.70
2022-10-12T01:23:13.005Z,6.60
2022-10-12T01:25:54.968Z,6.60
2022-10-12T01:28:55.973Z,6.50
2022-10-12T01:31:37.992Z,6.50
2022-10-12T01:34:15.596Z,6.50
2022-10-12T01:36:51.766Z,6.40
2022-10-12T01:39:25.034Z,6.40
2022-10-12T01:41:57.132Z,6.40
2022-10-12T01:44:25.868Z,6.40
2022-10-12T01:46:54.882Z,6.40
2022-10-12T01:49:29.253Z,6.40
2022-10-12T01:52:10.792Z,6.40
2022-10-12T01:55:20.163Z,6.40
2022-10-12T01:58:28.241Z,6.40
2022-10-12T02:01:48.584Z,6.40
2022-10-12T02:04:40.499Z,6.40
2022-10-12T02:07:17.018Z,6.40
2022-10-12T02:09:44.313Z,6.40
2022-10-12T02:12:18.884Z,6.40
2022-10-12T02:14:49.926Z,6.50
2022-10-12T02:17:20.319Z,6.50
2022-10-12T02:19:56.320Z,6.50
2022-10-12T02:22:34.376Z,6.50
2022-10-12T02:25:04.805Z,6.50
2022-10-12T02:27:35.050Z,6.50
2022-10-12T02:30:02.939Z,6.50
2022-10-12T02:32:49.230Z,6.50
2022-10-12T02:35:20.764Z,6.50
2022-10-12T02:37:55.007Z,6.50
2022-10-12T02:40:33.622Z,6.50
2022-10-12T02:43:13.181Z,6.40
2022-10-12T02:45:43.800Z,6.40
2022-10-12T02:48:15.182Z,6.40
2022-10-12T02:50:42.658Z,6.40
2022-10-12T02:53:10.238Z,6.40
2022-10-12T02:55:59.318Z,6.40
2022-10-12T02:58:26.104Z,6.50
2022-10-12T03:00:53.064Z,6.50
2022-10-12T03:03:19.907Z,6.50
2022-10-12T03:05:46.758Z,6.50
2022-10-12T03:08:13.672Z,6.50
2022-10-12T03:10:40.554Z,6.50
2022-10-12T03:13:07.511Z,6.50
2022-10-12T03:15:34.352Z,6.40
2022-10-12T03:18:01.167Z,6.40
2022-10-12T03:20:28.005Z,6.40
2022-10-12T03:22:54.781Z,6.40
2022-10-12T03:25:21.635Z,6.30
2022-10-12T03:27:48.485Z,6.30
2022-10-12T03:30:15.791Z,6.30
2022-10-12T03:32:42.600Z,6.20
2022-10-12T03:35:10.107Z,6.20
2022-10-12T03:37:37.111Z,6.20
2022-10-12T03:40:04.547Z,6.10
2022-10-12T03:42:31.338Z,6.10
2022-10-12T03:44:58.196Z,6.10
2022-10-12T03:47:25.029Z,6.00
2022-10-12T03:49:51.845Z,6.00
2022-10-12T03:52:20.599Z,6.00
2022-10-12T03:54:47.412Z,6.00
2022-10-12T03:57:14.182Z,5.90
2022-10-12T03:59:40.986Z,5.90
2022-10-12T04:02:08.134Z,5.90
2022-10-12T04:04:35.361Z,5.80
2022-10-12T04:07:02.125Z,5.90
2022-10-12T04:09:28.904Z,5.80
2022-10-12T04:11:55.710Z,5.80
2022-10-12T04:14:22.499Z,5.80
2022-10-12T04:16:49.276Z,5.80
2022-10-12T04:19:16.138Z,5.70
2022-10-12T04:21:42.867Z,5.70
2022-10-12T04:24:09.622Z,5.70
2022-10-12T04:26:36.418Z,5.70
2022-10-12T04:29:03.448Z,5.70
2022-10-12T04:31:30.759Z,5.70
2022-10-12T04:33:57.858Z,5.60
2022-10-12T04:36:25.384Z,5.70
2022-10-12T04:38:55.956Z,5.70
2022-10-12T04:41:27.132Z,5.70
2022-10-12T04:43:54.345Z,5.70
2022-10-12T04:46:21.557Z,5.70
2022-10-12T04:48:48.383Z,5.70
2022-10-12T04:51:15.338Z,5.70
2022-10-12T04:53:42.209Z,5.70
2022-10-12T04:56:09.210Z,5.70
2022-10-12T04:58:36.227Z,5.70
2022-10-12T05:01:03.118Z,5.70
2022-10-12T05:03:30.045Z,5.70
2022-10-12T05:05:56.785Z,5.80
2022-10-12T05:08:23.672Z,5.80
2022-10-12T05:10:50.480Z,5.80
2022-10-12T05:13:17.277Z,5.80
2022-10-12T05:15:44.928Z,5.70
2022-10-12T05:18:11.796Z,5.70
2022-10-12T05:20:38.734Z,5.70
2022-10-12T05:23:05.613Z,5.70
2022-10-12T05:25:32.744Z,5.70
2022-10-12T05:27:59.530Z,5.70
2022-10-12T05:30:26.381Z,5.60
2022-10-12T05:32:53.913Z,5.60
2022-10-12T05:35:20.706Z,5.60
2022-10-12T05:37:47.635Z,5.60
2022-10-12T05:40:14.476Z,5.50
2022-10-12T05:42:41.617Z,5.50
2022-10-12T05:45:12.208Z,5.50
2022-10-12T05:47:40.236Z,5.50
2022-10-12T05:50:07.917Z,5.50
2022-10-12T05:52:34.814Z,5.50
2022-10-12T05:55:01.615Z,5.50
2022-10-12T05:57:28.385Z,5.40
2022-10-12T05:59:55.167Z,5.40
2022-10-12T06:02:22.191Z,5.40
2022-10-12T06:04:49.046Z,5.40
2022-10-12T06:07:15.904Z,5.30
2022-10-12T06:09:44.699Z,5.30
2022-10-12T06:12:11.590Z,5.30
2022-10-12T06:14:38.342Z,5.30
2022-10-12T06:17:05.271Z,5.30
2022-10-12T06:19:32.204Z,5.30
2022-10-12T06:21:59.181Z,5.20
2022-10-12T06:24:25.973Z,5.30
2022-10-12T06:26:52.865Z,5.30
2022-10-12T06:29:19.982Z,5.30
2022-10-12T06:31:51.393Z,5.30
2022-10-12T06:34:19.065Z,5.30
2022-10-12T06:36:45.828Z,5.30
2022-10-12T06:39:12.955Z,5.30
2022-10-12T06:41:39.817Z,5.30
2022-10-12T06:44:07.031Z,5.40
2022-10-12T06:46:33.865Z,5.40
2022-10-12T06:49:00.652Z,5.40
2022-10-12T06:51:27.528Z,5.40
2022-10-12T06:53:57.448Z,5.50
2022-10-12T06:56:24.276Z,5.60
2022-10-12T06:58:55.788Z,5.70
2022-10-12T07:01:22.742Z,5.70
2022-10-12T07:03:49.628Z,5.90
2022-10-12T07:06:16.887Z,6.00
2022-10-12T07:08:44.093Z,6.10
2022-10-12T07:11:12.950Z,6.20
2022-10-12T07:13:39.979Z,6.30
2022-10-12T07:16:07.520Z,6.40
2022-10-12T07:18:34.597Z,6.50
2022-10-12T07:21:02.911Z,6.50
2022-10-12T07:23:34.458Z,6.60
2022-10-12T07:26:01.617Z,6.80
2022-10-12T07:28:28.512Z,6.80
2022-10-12T07:31:00.149Z,6.90
2022-10-12T07:33:27.177Z,6.90
2022-10-12T07:36:13.148Z,6.90
2022-10-12T07:38:45.445Z,7.00
2022-10-12T07:41:14.595Z,7.10
2022-10-12T07:43:41.721Z,7.20
2022-10-12T07:46:08.674Z,7.30
2022-10-12T07:48:36.046Z,7.40
2022-10-12T07:51:08.388Z,7.60
2022-10-12T07:53:36.356Z,7.70
2022-10-12T07:56:05.667Z,7.90
2022-10-12T07:58:32.876Z,8.00
2022-10-12T08:01:07.950Z,8.10
2022-10-12T08:03:35.451Z,8.10
2022-10-12T08:06:10.594Z,8.20
2022-10-12T08:08:37.645Z,8.20
2022-10-12T08:11:05.545Z,8.30
2022-10-12T08:13:32.805Z,8.30
2022-10-12T08:16:00.758Z,8.40
2022-10-12T08:18:27.645Z,8.50
2022-10-12T08:20:54.464Z,8.60
2022-10-12T08:23:21.252Z,8.80
2022-10-12T08:25:56.296Z,9.00
2022-10-12T08:28:24.606Z,9.20
2022-10-12T08:30:52.031Z,9.50
2022-10-12T08:33:19.541Z,9.70
2022-10-12T08:35:50.607Z,10.00
2022-10-12T08:38:17.599Z,10.20
2022-10-12T08:40:44.472Z,10.40
2022-10-12T08:43:25.813Z,10.60
2022-10-12T08:45:58.460Z,10.70
2022-10-12T08:48:27.512Z,10.90
2022-10-12T08:51:01.796Z,11.00
2022-10-12T08:53:57.642Z,11.10
2022-10-12T08:56:24.893Z,11.20
2022-10-12T08:58:53.000Z,11.30
2022-10-12T09:01:40.182Z,11.40
2022-10-12T09:04:41.039Z,11.60
2022-10-12T09:07:32.199Z,11.70
2022-10-12T09:09:58.963Z,11.80
2022-10-12T09:12:59.013Z,12.00
2022-10-12T09:15:33.451Z,12.10
2022-10-12T09:18:02.644Z,12.30
2022-10-12T09:20:41.027Z,12.40
2022-10-12T09:23:26.625Z,12.50
2022-10-12T09:25:57.571Z,12.60
2022-10-12T09:28:50.671Z,12.80
2022-10-12T09:31:56.566Z,12.90
2022-10-12T09:34:24.682Z,12.90
2022-10-12T09:36:51.672Z,12.90
2022-10-12T09:39:31.864Z,13.00
2022-10-12T09:41:58.661Z,13.00
2022-10-12T09:44:46.762Z,13.10
2022-10-12T09:47:28.850Z,13.30
2022-10-12T09:50:09.055Z,13.40
2022-10-12T09:52:35.932Z,13.60
2022-10-12T09:55:07.932Z,13.70
2022-10-12T09:57:39.454Z,13.90
2022-10-12T10:00:30.383Z,14.00
2022-10-12T10:02:58.359Z,14.20
2022-10-12T10:05:31.589Z,14.40
2022-10-12T10:08:19.676Z,14.80
2022-10-12T10:10:50.885Z,15.30
2022-10-12T10:13:18.111Z,16.00
2022-10-12T10:15:52.283Z,16.70
2022-10-12T10:18:40.667Z,17.80
2022-10-12T10:21:13.196Z,18.80
2022-10-12T10:23:58.888Z,19.90
2022-10-12T10:26:28.496Z,21.00
2022-10-12T10:29:30.738Z,22.10
2022-10-12T10:32:30.045Z,23.40
2022-10-12T10:35:15.112Z,24.80
2022-10-12T10:38:01.464Z,25.80
2022-10-12T10:40:55.480Z,26.60
2022-10-12T10:43:40.784Z,27.20
2022-10-12T10:46:30.515Z,27.00
2022-10-12T10:49:06.440Z,27.00
2022-10-12T10:51:52.355Z,26.80
2022-10-12T10:54:22.305Z,26.40
2022-10-12T10:56:52.599Z,26.30
2022-10-12T10:59:42.316Z,26.70
2022-10-12T11:02:19.604Z,27.60
2022-10-12T11:05:02.232Z,28.00
2022-10-12T11:07:39.571Z,28.20
2022-10-12T11:10:28.148Z,28.20
2022-10-12T11:13:03.394Z,28.40
2022-10-12T11:15:44.285Z,28.50
2022-10-12T11:18:26.624Z,28.80
2022-10-12T11:21:04.285Z,29.00
2022-10-12T11:23:49.149Z,29.00
2022-10-12T11:26:20.771Z,28.90
2022-10-12T11:28:48.036Z,29.00
2022-10-12T11:31:26.343Z,29.20
2022-10-12T11:33:55.111Z,29.10
2022-10-12T11:36:24.682Z,29.10
2022-10-12T11:39:06.648Z,29.40
2022-10-12T11:42:20.987Z,29.50
2022-10-12T11:44:48.926Z,29.10
2022-10-12T11:47:19.659Z,28.70
2022-10-12T11:50:05.054Z,28.10
2022-10-12T11:52:39.808Z,28.00
2022-10-12T11:55:29.787Z,28.00
2022-10-12T11:58:00.879Z,27.90
2022-10-12T12:00:49.424Z,27.60
2022-10-12T12:03:39.861Z,27.60
2022-10-12T12:06:28.728Z,27.50
2022-10-12T12:09:05.645Z,27.50
2022-10-12T12:11:34.344Z,27.60
2022-10-12T12:14:25.955Z,27.70
2022-10-12T12:17:32.601Z,27.90
2022-10-12T12:20:02.067Z,28.30
2022-10-12T12:22:37.899Z,28.20
2022-10-12T12:25:08.469Z,28.10
2022-10-12T12:27:51.504Z,28.10
2022-10-12T12:30:18.272Z,28.00
2022-10-12T12:32:55.879Z,27.80
2022-10-12T12:35:30.757Z,27.70
2022-10-12T12:38:12.784Z,27.80
2022-10-12T12:40:41.294Z,27.80
2022-10-12T12:43:29.844Z,27.90
2022-10-12T12:46:08.045Z,28.20
2022-10-12T12:48:44.528Z,28.40
2022-10-12T12:51:14.593Z,28.70
2022-10-12T12:53:49.348Z,28.80
2022-10-12T12:56:40.180Z,28.70
2022-10-12T12:59:28.517Z,28.60
2022-10-12T13:01:58.151Z,28.50
2022-10-12T13:04:40.212Z,28.40
2022-10-12T13:07:09.736Z,28.20
2022-10-12T13:09:49.048Z,28.10
2022-10-12T13:12:32.236Z,28.00
2022-10-12T13:15:25.502Z,27.70
2022-10-12T13:18:01.217Z,27.10
2022-10-12T13:20:32.700Z,26.50
2022-10-12T13:23:03.426Z,26.20
2022-10-12T13:25:34.869Z,25.90
2022-10-12T13:28:07.670Z,25.70
2022-10-12T13:30:53.436Z,25.50
2022-10-12T13:33:42.827Z,25.00
2022-10-12T13:36:26.197Z,24.60
2022-10-12T13:39:07.508Z,24.00
2022-10-12T13:41:35.427Z,23.40
2022-10-12T13:44:06.673Z,23.00
2022-10-12T13:46:44.385Z,22.50
2022-10-12T13:49:27.363Z,22.10
2022-10-12T13:51:55.907Z,21.70
2022-10-12T13:54:26.015Z,21.40
2022-10-12T13:57:00.884Z,21.20
2022-10-12T13:59:32.572Z,20.90
2022-10-12T14:02:01.633Z,20.70
2022-10-12T14:04:31.122Z,20.40
2022-10-12T14:07:07.477Z,20.10
2022-10-12T14:09:41.965Z,19.70
2022-10-12T14:12:10.498Z,19.30
2022-10-12T14:14:40.741Z,19.00
2022-10-12T14:17:12.614Z,18.80
2022-10-12T14:19:46.796Z,18.40
2022-10-12T14:22:31.150Z,18.00
2022-10-12T14:25:20.312Z,17.50
2022-10-12T14:27:52.812Z,17.10
2022-10-12T14:30:23.661Z,16.70
2022-10-12T14:32:54.012Z,16.40
2022-10-12T14:35:29.192Z,16.10
2022-10-12T14:37:56.731Z,16.00
2022-10-12T14:40:33.745Z,15.80
2022-10-12T14:43:04.384Z,15.70
2022-10-12T14:45:32.964Z,15.60
2022-10-12T14:48:01.529Z,15.60
2022-10-12T14:50:30.469Z,15.50
2022-10-12T14:53:01.905Z,15.50
2022-10-12T14:55:32.121Z,15.40
2022-10-12T14:57:59.769Z,15.40
2022-10-12T15:00:32.694Z,15.40
2022-10-12T15:03:00.051Z,15.40
2022-10-12T15:05:34.273Z,15.40
2022-10-12T15:08:07.269Z,15.40
2022-10-12T15:10:34.678Z,15.50
2022-10-12T15:13:01.531Z,15.50
2022-10-12T15:15:42.687Z,15.50
2022-10-12T15:18:09.936Z,15.50
2022-10-12T15:20:37.075Z,15.50
2022-10-12T15:23:05.015Z,15.40
2022-10-12T15:25:35.009Z,15.40
2022-10-12T15:28:03.142Z,15.30
2022-10-12T15:30:30.619Z,15.30
2022-10-12T15:32:57.436Z,15.20
2022-10-12T15:35:26.948Z,15.20
2022-10-12T15:37:56.308Z,15.10
2022-10-12T15:40:23.866Z,15.00
2022-10-12T15:42:50.759Z,14.90
2022-10-12T15:45:35.655Z,14.90
2022-10-12T15:48:05.876Z,14.80
2022-10-12T15:50:51.092Z,14.70
2022-10-12T15:53:21.251Z,14.60
2022-10-12T15:55:48.513Z,14.60
2022-10-12T15:58:15.750Z,14.50
2022-10-12T16:00:42.815Z,14.40
2022-10-12T16:03:24.257Z,14.40
2022-10-12T16:05:52.287Z,14.20
2022-10-12T16:08:19.195Z,14.20
2022-10-12T16:10:47.784Z,14.10
2022-10-12T16:13:15.887Z,14.10
2022-10-12T16:15:43.447Z,14.00
2022-10-12T16:18:11.714Z,14.00
2022-10-12T16:20:39.269Z,13.90
2022-10-12T16:23:09.923Z,13.80
2022-10-12T16:25:36.808Z,13.70
2022-10-12T16:28:03.717Z,13.70
2022-10-12T16:30:31.274Z,13.70
2022-10-12T16:32:58.095Z,13.60
2022-10-12T16:35:25.164Z,13.50
2022-10-12T16:37:52.060Z,13.40
2022-10-12T16:40:19.099Z,13.40
2022-10-12T16:42:53.049Z,13.30
2022-10-12T16:45:21.345Z,13.30
2022-10-12T16:47:50.459Z,13.20
2022-10-12T16:50:18.841Z,13.10
2022-10-12T16:52:45.939Z,13.00
2022-10-12T16:55:12.988Z,12.90
2022-10-12T16:57:40.555Z,12.90
2022-10-12T17:00:09.203Z,12.80
2022-10-12T17:02:36.223Z,12.70
2022-10-12T17:05:04.225Z,12.60
2022-10-12T17:07:31.648Z,12.60
2022-10-12T17:09:58.737Z,12.50
2022-10-12T17:12:26.163Z,12.40
2022-10-12T17:14:53.345Z,12.30
2022-10-12T17:17:20.729Z,12.20
2022-10-12T17:19:47.548Z,12.20
2022-10-12T17:22:15.239Z,12.10
2022-10-12T17:24:43.043Z,12.10
2022-10-12T17:27:12.220Z,12.00
2022-10-12T17:29:41.821Z,11.90
2022-10-12T17:32:12.093Z,11.80
2022-10-12T17:34:41.779Z,11.70
2022-10-12T17:37:11.323Z,11.70
2022-10-12T17:39:42.528Z,11.60
2022-10-12T17:42:09.655Z,11.60
2022-10-12T17:44:36.460Z,11.60
2022-10-12T17:47:03.837Z,11.70
2022-10-12T17:49:31.096Z,11.70
2022-10-12T17:51:58.283Z,11.70
2022-10-12T17:54:26.964Z,11.70
2022-10-12T17:56:55.630Z,11.70
2022-10-12T17:59:22.923Z,11.80
2022-10-12T19:24:17.237Z,11.40
2022-10-12T19:26:44.380Z,11.30
2022-10-12T19:29:11.536Z,11.30
2022-10-12T19:31:42.190Z,11.30
2022-10-12T19:34:11.684Z,11.30
2022-10-12T19:36:39.149Z,11.30
2022-10-12T19:39:09.796Z,11.30
2022-10-12T19:41:36.999Z,11.20
2022-10-12T19:44:04.133Z,11.20
2022-10-12T19:46:31.763Z,11.30
2022-10-12T19:48:59.825Z,11.20
2022-10-12T19:51:28.260Z,11.20
2022-10-12T19:53:57.237Z,11.20
2022-10-12T19:56:26.425Z,11.20
2022-10-12T19:58:57.963Z,11.10
2022-10-12T20:01:34.938Z,11.10
2022-10-12T20:04:06.955Z,11.10
2022-10-12T20:06:33.862Z,11.00
2022-10-12T20:09:03.846Z,11.00
2022-10-12T20:11:31.260Z,11.00
2022-10-12T20:13:58.415Z,10.90
2022-10-12T20:16:25.353Z,10.90
2022-10-12T20:18:52.540Z,10.80
2022-10-12T20:21:22.278Z,10.70
2022-10-12T20:23:50.029Z,10.60
2022-10-12T20:26:20.568Z,10.50
2022-10-12T20:28:47.849Z,10.50
2022-10-12T20:31:14.719Z,10.40
2022-10-12T20:33:41.669Z,10.30
2022-10-12T20:36:18.503Z,10.20
2022-10-12T20:38:45.369Z,10.10
2022-10-12T20:41:14.131Z,10.00
2022-10-12T20:43:41.843Z,10.00
2022-10-12T20:46:13.141Z,9.90
2022-10-12T20:48:40.784Z,9.80
2022-10-12T20:51:09.584Z,9.70
2022-10-12T20:53:37.843Z,9.70
2022-10-12T20:56:06.178Z,9.60
2022-10-12T20:58:33.419Z,9.50
2022-10-12T21:01:12.017Z,9.40
2022-10-12T21:03:39.571Z,9.40
2022-10-12T21:06:08.673Z,9.30
2022-10-12T21:08:36.564Z,9.20
2022-10-12T21:11:05.963Z,9.10
2022-10-12T21:13:34.634Z,9.10
2022-10-12T21:16:01.695Z,9.00
2022-10-12T21:18:34.027Z,9.00
2022-10-12T21:21:11.593Z,8.90
2022-10-12T21:23:42.544Z,8.80
2022-10-12T21:26:11.988Z,8.80
2022-10-12T21:28:39.235Z,8.70
2022-10-12T21:31:06.373Z,8.70
2022-10-12T21:33:35.237Z,8.70
2022-10-12T21:36:17.514Z,8.70
2022-10-12T21:38:44.509Z,8.60
2022-10-12T21:41:13.556Z,8.60
2022-10-12T21:43:42.230Z,8.50
2022-10-12T21:46:12.475Z,8.50
2022-10-12T21:48:39.687Z,8.50
2022-10-12T21:51:07.146Z,8.40
2022-10-12T21:53:35.010Z,8.40
2022-10-12T21:56:17.199Z,8.40
2022-10-12T21:58:44.856Z,8.40
2022-10-12T22:01:20.729Z,8.40
2022-10-12T22:03:49.824Z,8.30
2022-10-12T22:06:19.017Z,8.30
2022-10-12T22:08:51.233Z,8.30
2022-10-12T22:11:20.034Z,8.40
2022-10-12T22:13:47.220Z,8.40
2022-10-12T22:16:16.555Z,8.40
2022-10-12T22:18:43.889Z,8.40
2022-10-12T22:21:19.801Z,8.40
2022-10-12T22:23:46.696Z,8.50
2022-10-12T22:26:16.959Z,8.60
2022-10-12T22:28:43.925Z,8.60
2022-10-12T22:31:13.852Z,8.70
2022-10-12T22:33:41.110Z,8.80
2022-10-12T22:36:08.704Z,8.90
2022-10-12T22:38:36.026Z,8.90
2022-10-12T22:41:17.482Z,9.00
2022-10-12T22:43:44.331Z,9.10
2022-10-12T22:46:11.756Z,9.20
2022-10-12T22:48:38.699Z,9.20
2022-10-12T22:51:06.569Z,9.20
2022-10-12T22:53:34.755Z,9.30
2022-10-12T22:56:04.456Z,9.30
2022-10-12T22:58:31.930Z,9.20
2022-10-12T23:01:10.647Z,9.20
2022-10-12T23:03:38.269Z,9.20
2022-10-12T23:06:06.506Z,9.20
2022-10-12T23:08:33.620Z,9.10
2022-10-12T23:11:05.596Z,9.10
2022-10-12T23:13:33.822Z,9.10
2022-10-12T23:16:05.516Z,9.10
2022-10-12T23:18:34.051Z,9.00
2022-10-12T23:21:08.158Z,9.00
2022-10-12T23:23:35.987Z,9.00
2022-10-12T23:26:05.654Z,9.00
2022-10-12T23:28:33.091Z,8.90
2022-10-12T23:31:02.028Z,8.90
2022-10-12T23:33:28.874Z,8.90
2022-10-12T23:36:00.835Z,8.90
2022-10-12T23:38:32.895Z,8.90
2022-10-12T23:41:00.151Z,8.90
2022-10-12T23:43:27.468Z,8.90
2022-10-12T23:45:55.245Z,8.90
2022-10-12T23:48:23.089Z,8.90
2022-10-12T23:50:51.827Z,8.90
2022-10-12T23:53:20.844Z,8.90
2022-10-12T23:55:48.360Z,8.90
2022-10-12T23:58:15.429Z,8.90
